Terminal Aerodrome Forecast
Issued by NWS

Home | Current Version | Previous Version | Graphics & Text | Print | Product List | Glossary On
Versions: 1 2 3 4 5 6 7 8 9 10 11 12 13 14 15 16 17 18 19 20
000
FTUS43 KBIS 270500
TAFDIK
TAF
KDIK 270520Z 2706/2806 16006KT P6SM BKN100
     FM270700 16011KT 4SM -SN OVC030
     FM271100 19011KT P6SM OVC050
     FM271700 29012KT P6SM BKN090
     FM272000 32015G23KT P6SM SCT100=

USA.gov is the U.S. government's official web portal to all federal, state and local government web resources and services.